This is the latest recevied weather packets stored in our database for station/object KQ4HEI. If no packets are shown the sender has not sent any weather packets the latest 10 day(s).
| Time | Temp. | Humidity | Pressure | Rain* | Wind** | Luminosity | Snow |
|---|---|---|---|---|---|---|---|
| 1777776092 | 14.44° C | 82% | 1014.9 hPa | 0 mm | - | - | - |
| 1777775492 | 15° C | 80% | 1014.6 hPa | 0 mm | - | - | - |
| 1777774892 | 14.44° C | 84% | 1014.2 hPa | 0 mm | - | - | - |
| 1777774292 | 13.89° C | 87% | 1014.1 hPa | 0 mm | - | - | - |
| 1777773692 | 13.89° C | 90% | 1014 hPa | 0 mm | - | - | - |
| 1777773092 | 13.89° C | 90% | 1013.9 hPa | 0 mm | - | - | - |
| 1777772492 | 13.89° C | 88% | 1013.7 hPa | 0 mm | - | - | - |
| 1777771892 | 14.44° C | 87% | 1013.5 hPa | 0 mm | - | - | - |
| 1777771292 | 15° C | 85% | 1013.4 hPa | 0 mm | - | - | - |
| 1777770692 | 15.56° C | 83% | 1013.2 hPa | 0 mm | - | - | - |
| 1777770092 | 16.11° C | 82% | 1013.1 hPa | 0 mm | - | - | - |
| 1777769492 | 16.67° C | 79% | 1012.9 hPa | 0 mm | - | - | - |
| 1777768929 | 17.78° C | 75% | 1012.5 hPa | 0 mm | - | - | - |
| 1777768892 | 17.78° C | 75% | 1012.5 hPa | 0 mm | - | - | - |
| 1777768292 | 18.33° C | 72% | 1012.1 hPa | 0 mm | - | - | - |
| 1777767692 | 18.89° C | 69% | 1011.9 hPa | 0 mm | - | - | - |
| 1777767092 | 20° C | 66% | 1011.8 hPa | 0 mm | - | - | - |
| 1777766492 | 20.56° C | 64% | 1011.6 hPa | 0 mm | - | - | - |
| 1777765892 | 21.11° C | 62% | 1011.4 hPa | 0 mm | - | - | - |
| 1777765292 | 21.67° C | 61% | 1011 hPa | 0 mm | - | - | - |
| 1777764693 | 22.22° C | 59% | 1010.9 hPa | 0 mm | - | - | - |
| 1777764092 | 23.33° C | 56% | 1010.9 hPa | 0 mm | - | - | - |
| 1777763492 | 23.89° C | 55% | 1010.9 hPa | 0 mm | - | - | - |
| 1777762894 | 23.89° C | 55% | 1010.8 hPa | 0 mm | - | - | - |
| 1777762292 | 24.44° C | 55% | 1010.8 hPa | 0 mm | - | - | - |
* Rain latest hour (hover to see other rain measurements)
** Current wind speed in m/s (hover to see current wind gust speed)